• Join FlightAware (Why Join?)
  • Login
  • US Flag 
04:32PM EDT


 

Airport Tracker/Info


-or-


 

Live Flight TrackerFlight Track Log ✈ GJS3707 ✈ 17-May-2013 ✈ KORD - KBOI

Flight Track Log - Related Links

Times and Time Zones

All times are in EDT time to prevent confusion due to time zone crossing. See the GJS3707 flight status page for this flight to view local times or setup timezone preferences in your user account.

Time Position Orientation Groundspeed Altitude Reporting Facility
EDT Latitude Longitude Course Direction KTS MPH feet Rate Location/Type
11:06AM 41.9000 -87.9500 270° West 203 234 3,200  Level Chicago TRACON
11:08AM 41.8286 -88.0481 226° Southwest 255 293 7,000 2,280 Climbing Chicago Center
11:09AM 41.9667 -88.4866 270° West  Level FlightAware Approximate
11:09AM 41.8489 -88.1433 286° West 280 322 9,400  Level Chicago Center
11:10AM 41.9668 -88.6332 270° West  Level FlightAware Approximate
11:10AM 41.9031 -88.2250 312° West 300 345 11,700  Level Chicago Center
11:11AM 41.9667 -88.7799 270° West  Level FlightAware Approximate
11:11AM 41.9389 -88.3250 296° West 312 359 13,000  Level Chicago Center
11:12AM 41.9831 -88.4367 298° West 339 390 14,700 1,380 Climbing Chicago Center
11:13AM 42.0100 -88.5631 286° West 358 412 15,900 540 Climbing Chicago Center
11:14AM 42.0164 -88.7247 273° West 363 418 15,900 780 Level Chicago Center
11:15AM 42.0247 -88.8597 275° West 365 420 17,600 1,500 Climbing Chicago Center
11:16AM 42.0364 -88.9947 277° West 367 422 19,100 1,320 Climbing Chicago Center
11:17AM 42.0508 -89.1331 278° West 375 432 20,400 1,200 Climbing Chicago Center
11:18AM 42.0667 -89.2828 278° West 401 461 21,600 1,320 Climbing Chicago Center
11:19AM 42.0808 -89.4611 276° West 411 473 23,200 1,440 Climbing Chicago Center
11:20AM 42.0969 -89.6139 278° West 414 476 24,600 1,260 Climbing Chicago Center
11:21AM 42.1142 -89.7672 279° West 415 478 25,900 1,200 Climbing Chicago Center
11:22AM 42.1311 -89.9172 279° West 415 478 27,100 1,140 Climbing Chicago Center
11:23AM 42.1489 -90.0717 279° West 417 480 28,300 1,200 Climbing Chicago Center
11:24AM 42.1711 -90.2556 279° West 418 481 29,700 1,140 Climbing Chicago Center
11:26AM 42.1889 -90.4094 279° West 419 482 30,700 900 Climbing Chicago Center
11:27AM 42.2089 -90.5639 280° West 421 484 31,600 780 Climbing Chicago Center
11:28AM 42.2594 -90.7072 296° West 427 491 32,300 660 Climbing Chicago Center
11:29AM 42.3083 -90.8519 295° West 428 493 33,000 720 Climbing Chicago Center
11:30AM 42.3664 -91.0289 294° West 430 495 33,900 480 Climbing Chicago Center
11:31AM 42.4153 -91.1783 294° West 437 503 34,000  Climbing Chicago Center
11:32AM 42.4658 -91.3289 295° West 439 505 34,000  Level Chicago Center
11:33AM 42.5156 -91.4836 294° West 445 512 34,000  Level Chicago Center
11:34AM 42.5658 -91.6389 294° West 448 516 34,000  Level Chicago Center
11:35AM 42.6164 -91.7956 294° West 448 516 34,000  Level Chicago Center
11:36AM 42.6656 -91.9511 293° West 446 513 34,000  Level Chicago Center
11:37AM 42.7239 -92.1342 294° West 441 507 34,000  Level Chicago Center
11:38AM 42.7703 -92.2842 293° West 435 501 34,000  Level Chicago Center
11:39AM 42.8178 -92.4342 293° West 435 501 34,000  Level Chicago Center
11:40AM 42.8639 -92.5825 293° West 430 495 34,000  Level Chicago Center
11:41AM 42.9206 -92.7653 293° West 435 501 34,000  Level Minneapolis Center
11:42AM 42.9667 -92.9153 293° West 434 499 34,000  Level Minneapolis Center
11:43AM 43.0217 -93.0958 293° West 433 498 34,000  Level Minneapolis Center
11:44AM 43.0678 -93.2467 293° West 433 498 34,000  Level Minneapolis Center
11:45AM 43.1081 -93.4003 290° West 433 498 34,000  Level Minneapolis Center
11:46AM 43.1353 -93.5597 283° West 433 498 34,000  Level Minneapolis Center
11:47AM 43.1603 -93.7214 282° West 436 502 34,000  Level Minneapolis Center
11:48AM 43.1936 -93.9119 284° West 435 501 34,000  Level Minneapolis Center
11:49AM 43.2200 -94.0728 283° West 435 501 34,000  Level Minneapolis Center
11:50AM 43.2494 -94.2303 284° West 434 499 34,000  Level Minneapolis Center
11:51AM 43.2783 -94.4000 283° West 436 502 34,000  Level Minneapolis Center
11:53AM 43.3047 -94.5594 283° West 433 498 34,000  Level Minneapolis Center
11:54AM 43.3308 -94.7197 283° West 432 497 34,000  Level Minneapolis Center
11:55AM 43.3583 -94.8789 283° West 430 495 34,000  Level Minneapolis Center
11:56AM 43.3939 -95.1019 282° West 426 490 34,000  Level Minneapolis Center
11:57AM 43.4186 -95.2608 282° West 426 490 34,000  Level Minneapolis Center
11:58AM 43.4442 -95.4214 282° West 428 493 34,000  Level Minneapolis Center
11:59AM 43.4697 -95.5803 283° West 427 491 34,000  Level Minneapolis Center
12:00PM 43.4992 -95.7722 282° West 426 490 34,000  Level Minneapolis Center
12:01PM 43.5236 -95.9333 282° West 428 493 34,000  Level Minneapolis Center
12:02PM 43.5483 -96.0944 282° West 429 494 34,000  Level Minneapolis Center
12:03PM 43.5719 -96.2547 282° West 427 491 34,000  Level Minneapolis Center
12:04PM 43.5967 -96.4172 282° West 430 495 34,000  Level Minneapolis Center
12:05PM 43.6206 -96.5800 282° West 432 497 34,000  Level Minneapolis Center
12:06PM 43.6433 -96.7400 281° West 427 491 34,000  Level Minneapolis Center
12:07PM 43.6597 -96.9036 278° West 428 493 34,000  Level Minneapolis Center
12:08PM 43.6747 -97.1011 276° West 430 495 34,000  Level Minneapolis Center
12:09PM 43.6864 -97.2664 276° West 432 497 34,000  Level Minneapolis Center
12:10PM 43.6992 -97.4308 276° West 432 497 34,000  Level Minneapolis Center
12:11PM 43.7114 -97.5947 276° West 429 494 34,000  Level Minneapolis Center
12:12PM 43.7231 -97.7578 276° West 428 493 34,000  Level Minneapolis Center
12:13PM 43.7350 -97.9231 276° West 431 496 34,000  Level Minneapolis Center
12:14PM 43.7489 -98.1172 276° West 425 489 34,000  Level Minneapolis Center
12:15PM 43.7597 -98.2794 275° West 424 488 34,000  Level Minneapolis Center
12:17PM 43.7697 -98.4408 275° West 423 487 34,000  Level Minneapolis Center
12:18PM 43.7803 -98.6014 275° West 420 483 34,000  Level Minneapolis Center
12:19PM 43.7911 -98.7550 276° West 420 483 34,000  Level Minneapolis Center
12:20PM 43.8003 -98.9164 275° West 420 483 34,000  Level Minneapolis Center
12:21PM 43.8119 -99.1092 275° West 418 481 34,000  Level Minneapolis Center
12:22PM 43.8208 -99.2706 274° West 419 482 34,000  Level Minneapolis Center
12:23PM 43.8303 -99.4319 275° West 420 483 34,000  Level Minneapolis Center
12:24PM 43.8386 -99.5928 274° West 419 482 34,000  Level Minneapolis Center
12:25PM 43.8472 -99.7536 274° West 418 481 34,000  Level Minneapolis Center
12:26PM 43.8569 -99.9167 275° West 421 484 34,000  Level Minneapolis Center
12:27PM 43.8650 -100.0783 274° West 421 484 34,000  Level Minneapolis Center
12:28PM 43.8739 -100.2706 274° West 419 482 34,000  Level Minneapolis Center
12:29PM 43.8814 -100.4328 274° West 419 482 34,000  Level Minneapolis Center
12:30PM 43.8906 -100.5975 274° West 424 488 34,000  Level Minneapolis Center
12:31PM 43.8972 -100.7606 273° West 424 488 34,000  Level Minneapolis Center
12:32PM 43.9044 -100.9228 274° West 422 486 34,000  Level Minneapolis Center
12:33PM 43.9111 -101.0822 273° West 417 480 34,000  Level Minneapolis Center
12:34PM 43.9172 -101.2433 273° West 416 479 34,000  Level Minneapolis Center
12:35PM 43.9256 -101.4372 273° West 420 483 34,000  Level Denver Center
12:36PM 43.9314 -101.5969 273° West 416 479 34,000  Level Denver Center
12:37PM 43.9361 -101.7567 272° West 415 478 34,000  Level Denver Center
12:38PM 43.9389 -101.9444 271° West 407 468 34,000  Level Denver Center
12:39PM 43.9442 -102.1056 273° West 414 476 34,000  Level Denver Center
12:40PM 43.9508 -102.2686 273° West 419 482 34,000  Level Denver Center
12:41PM 43.9581 -102.4319 274° West 423 487 34,000  Level Denver Center
12:42PM 43.9639 -102.5950 273° West 423 487 34,000  Level Denver Center
12:43PM 43.9681 -102.7569 272° West 422 486 34,000  Level Denver Center
12:45PM 43.9753 -102.9353 273° West 424 488 34,000  Level Denver Center
12:46PM 43.9786 -103.1156 272° West 422 486 34,000  Level Denver Center
12:47PM 43.9808 -103.2675 271° West 417 480 34,000  Level Denver Center
12:48PM 43.9847 -103.4494 272° West 421 484 34,000  Level Denver Center
12:49PM 43.9878 -103.6039 272° West 420 483 34,000  Level Denver Center
12:50PM 43.9908 -103.7831 271° West 419 482 34,000  Level Denver Center
12:51PM 43.9922 -103.9367 271° West 418 481 34,000  Level Denver Center
12:52PM 43.9953 -104.1161 271° West 417 480 34,000  Level Denver Center
12:53PM 43.9972 -104.2694 271° West 417 480 34,000  Level Denver Center
12:54PM 43.9986 -104.4464 271° West 413 475 34,000  Level Denver Center
12:55PM 44.0000 -104.6003 271° West 416 479 34,000  Level Denver Center
12:56PM 44.0011 -104.7789 271° West 416 479 34,000  Level Denver Center
12:57PM 44.0025 -104.9303 271° West 414 476 34,000  Level Denver Center
12:58PM 44.0036 -105.1100 271° West 417 480 34,000  Level Denver Center
12:59PM 44.0036 -105.2633 270° West 417 480 34,000  Level Denver Center
01:00PM 44.0047 -105.4153 271° West 414 476 34,000  Level Denver Center
01:01PM 44.0033 -105.5950 269° West 417 480 34,000  Level Denver Center
01:02PM 44.0050 -105.7467 271° West 414 476 34,000  Level Denver Center
01:03PM 44.0025 -105.9264 269° West 417 480 34,000  Level Denver Center
01:04PM 44.0033 -106.0781 270° West 414 476 34,000  Level Denver Center
01:05PM 44.0011 -106.2581 269° West 417 480 34,000  Level Denver Center
01:06PM 43.9997 -106.4092 269° West 410 472 34,000  Level Denver Center
01:07PM 44.0053 -106.5869 273° West 413 475 34,000  Level Denver Center
01:08PM 44.0114 -106.7361 273° West 406 467 34,000  Level Denver Center
01:09PM 44.0175 -106.9094 273° West 406 467 34,000 60 Level Denver Center
01:10PM 44.0192 -106.9831 272° West 400 460 34,100 660 Climbing Salt Lake Center
01:11PM 44.0261 -107.1614 273° West 409 471 35,100 960 Climbing Salt Lake Center
01:11PM 44.0292 -107.2378 273° West 410 472 35,600 540 Climbing Denver Center
01:12PM 44.0339 -107.3878 273° West 407 468 36,000 240 Climbing Denver Center
01:13PM 44.0361 -107.4631 272° West 407 468 36,000  Level Salt Lake Center
01:14PM 44.0419 -107.6417 273° West 412 474 36,000  Level Salt Lake Center
01:15PM 44.0461 -107.7917 272° West 406 467 36,000  Level Salt Lake Center
01:16PM 44.0506 -107.9639 272° West 400 460 36,000  Level Salt Lake Center
01:17PM 44.0547 -108.1092 272° West 395 455 36,000  Level Salt Lake Center
01:18PM 44.0583 -108.2553 272° West 395 455 36,000  Level Salt Lake Center
01:19PM 44.0628 -108.4239 272° West 390 449 36,000  Level Salt Lake Center
01:20PM 44.0647 -108.5686 271° West 390 449 36,000  Level Salt Lake Center
01:21PM 44.0469 -108.7331 262° West 387 445 36,000  Level Salt Lake Center
01:22PM 44.0367 -108.8756 264° West 387 445 36,000  Level Salt Lake Center
01:23PM 44.0369 -109.0233 270° West 394 453 36,000  Level Salt Lake Center
01:24PM 44.0436 -109.1986 273° West 405 466 36,000  Level Salt Lake Center
01:25PM 44.0486 -109.3503 273° West 410 472 36,000  Level Salt Lake Center
01:26PM 44.0519 -109.5031 272° West 405 466 36,000  Level Salt Lake Center
01:27PM 44.0558 -109.6786 272° West 408 470 36,000  Level Salt Lake Center
01:28PM 44.0606 -109.8303 273° West 411 473 36,000  Level Salt Lake Center
01:29PM 44.0633 -110.0069 271° West 410 472 36,000  Level Salt Lake Center
01:30PM 44.0672 -110.1575 272° West 407 468 36,000  Level Salt Lake Center
01:31PM 44.0700 -110.3339 271° West 408 470 36,000  Level Salt Lake Center
01:32PM 44.0728 -110.4850 272° West 408 470 36,000  Level Salt Lake Center
01:33PM 44.0742 -110.6361 271° West 409 471 36,000  Level Salt Lake Center
01:35PM 44.0781 -110.8125 272° West 408 470 36,000  Level Salt Lake Center
01:36PM 44.0792 -110.9622 271° West 405 466 36,000  Level Salt Lake Center
01:37PM 44.0811 -111.1364 271° West 404 465 36,000  Level Salt Lake Center
01:38PM 44.0836 -111.2836 271° West 398 458 36,000  Level Salt Lake Center
01:39PM 44.0850 -111.4303 271° West 396 456 36,000  Level Salt Lake Center
01:40PM 44.0864 -111.6011 271° West 394 453 36,000  Level Salt Lake Center
01:41PM 44.0867 -111.7456 270° West 390 449 36,000  Level Salt Lake Center
01:42PM 44.0883 -111.9136 271° West 389 448 36,000  Level Salt Lake Center
01:43PM 44.0889 -112.0603 270° West 394 453 36,000  Level Salt Lake Center
01:44PM 44.0867 -112.2022 269° West 386 444 36,000  Level Salt Lake Center
01:45PM 44.0689 -112.3697 262° West 390 449 36,000  Level Salt Lake Center
01:46PM 44.0550 -112.5131 262° West 392 451 36,000  Level Salt Lake Center
01:47PM 44.0344 -112.6803 260° West 393 452 36,000  Level Salt Lake Center
01:48PM 44.0169 -112.8236 260° West 392 451 36,000  Level Salt Lake Center
01:49PM 43.9994 -112.9681 260° West 395 455 36,000  Level Salt Lake Center
01:50PM 43.9800 -113.1386 261° West 399 459 36,000  Level Salt Lake Center
01:51PM 43.9611 -113.2828 260° West 398 458 36,000  Level Salt Lake Center
01:52PM 43.9400 -113.4539 260° West 403 464 36,000  Level Salt Lake Center
01:53PM 43.9225 -113.6031 261° West 411 473 36,000  Level Salt Lake Center
01:54PM 43.9008 -113.7764 260° West 410 472 36,000 -480 Level Salt Lake Center
01:55PM 43.8806 -113.9317 260° West 410 472 35,100 -1,500 Descending Salt Lake Center
01:56PM 43.8619 -114.0817 260° West 412 474 33,000 -2,340 Descending Salt Lake Center
01:57PM 43.8394 -114.2539 260° West 408 470 30,400 -2,400 Descending Salt Lake Center
01:58PM 43.8208 -114.3967 260° West 396 456 28,200 -2,040 Descending Salt Lake Center
01:59PM 43.8022 -114.5369 260° West 388 447 26,200 -2,100 Descending Salt Lake Center
02:00PM 43.7797 -114.7000 259° West 383 441 23,900 -2,100 Descending Salt Lake Center
02:01PM 43.7614 -114.8364 260° West 376 433 22,000 -1,920 Descending Salt Lake Center
02:02PM 43.7400 -114.9922 259° West 369 425 20,000 -1,680 Descending Salt Lake Center
02:03PM 43.7142 -115.1192 254° West 359 413 18,600 -1,500 Descending Salt Lake Center
02:04PM 43.6617 -115.2492 241° Southwest 354 407 16,900 -1,680 Descending Salt Lake Center
02:05PM 43.6189 -115.3756 245° Southwest 352 405 15,200 -1,800 Descending Salt Lake Center
02:06PM 43.6089 -115.5117 264° West 340 391 13,300 -1,860 Descending Salt Lake Center
02:07PM 43.5711 -115.6117 242° Southwest 310 357 11,500 -1,560 Descending Salt Lake Center
02:08PM 43.5200 -115.7061 233° Southwest 295 339 10,100 -1,560 Descending Salt Lake Center
02:09PM 43.4714 -115.7947 233° Southwest 279 321 8,300 -1,140 Descending Salt Lake Center
02:11PM 43.4456 -115.8797 247° West 233 268 7,800 -900 Descending Salt Lake Center
02:12PM 43.4725 -115.9592 295° West 220 253 6,500 -960 Descending Salt Lake Center
02:13PM 43.4944 -116.0231 295° West 198 228 5,900 -600 Descending Salt Lake Center